createdAt,value
2023-01-30T00:00:20.423Z,1.00
2023-01-30T00:02:47.349Z,1.00
2023-01-30T00:05:27.448Z,1.00
2023-01-30T00:07:54.348Z,1.00
2023-01-30T00:10:27.455Z,1.00
2023-01-30T00:12:54.467Z,1.00
2023-01-30T00:15:27.423Z,1.00
2023-01-30T00:18:00.501Z,1.00
2023-01-30T00:20:27.573Z,1.00
2023-01-30T00:23:02.463Z,1.00
2023-01-30T00:25:37.647Z,1.00
2023-01-30T00:28:04.701Z,1.00
2023-01-30T00:30:38.515Z,1.00
2023-01-30T00:33:05.449Z,1.00
2023-01-30T00:35:39.448Z,1.00
2023-01-30T00:38:06.476Z,1.00
2023-01-30T00:40:39.468Z,1.00
2023-01-30T00:43:32.468Z,1.00
2023-01-30T00:46:20.009Z,1.00
2023-01-30T00:48:53.428Z,1.00
2023-01-30T00:51:20.314Z,1.00
2023-01-30T00:53:53.479Z,1.00
2023-01-30T00:56:26.463Z,1.00
2023-01-30T00:58:55.940Z,1.00
2023-01-30T01:01:29.519Z,1.00
2023-01-30T01:04:03.490Z,1.00
2023-01-30T01:06:38.807Z,16.40
2023-01-30T01:09:13.456Z,1.00
2023-01-30T01:11:40.403Z,17.90
2023-01-30T01:14:08.890Z,53.60
2023-01-30T01:16:43.566Z,75.70
2023-01-30T01:19:17.502Z,99.90
2023-01-30T01:21:44.793Z,99.90
2023-01-30T01:24:22.465Z,79.60
2023-01-30T01:26:55.501Z,59.20
2023-01-30T01:29:22.558Z,22.60
2023-01-30T01:31:56.502Z,1.00
2023-01-30T01:34:30.448Z,1.00
2023-01-30T01:36:57.359Z,1.00
2023-01-30T01:39:30.472Z,2.40
2023-01-30T01:41:57.386Z,8.30
2023-01-30T01:44:31.464Z,1.00
2023-01-30T01:47:00.247Z,1.00
2023-01-30T01:49:40.510Z,1.00
2023-01-30T01:52:17.073Z,1.00
2023-01-30T01:55:08.454Z,1.00
2023-01-30T01:58:02.522Z,1.00
2023-01-30T02:00:36.508Z,1.00
2023-01-30T02:03:23.478Z,1.00
2023-01-30T02:06:08.437Z,1.00
2023-01-30T02:08:58.475Z,1.00
2023-01-30T02:11:51.488Z,1.00
2023-01-30T02:14:21.058Z,1.00
2023-01-30T02:16:54.511Z,1.00
2023-01-30T02:20:09.484Z,1.00
2023-01-30T02:23:19.564Z,1.00
2023-01-30T02:26:31.520Z,1.00
2023-01-30T02:29:35.696Z,1.00
2023-01-30T02:32:37.486Z,1.00
2023-01-30T02:35:47.519Z,1.00
2023-01-30T02:39:01.478Z,1.00
2023-01-30T02:42:06.596Z,1.00
2023-01-30T02:45:08.454Z,99.90
2023-01-30T02:48:09.481Z,99.90
2023-01-30T02:51:18.467Z,1.00
2023-01-30T02:53:55.464Z,1.00
2023-01-30T02:56:28.526Z,1.00
2023-01-30T02:59:06.061Z,1.00
2023-01-30T03:02:12.522Z,1.00
2023-01-30T03:05:04.917Z,1.00
2023-01-30T03:08:19.504Z,1.00
2023-01-30T03:11:11.492Z,99.90
2023-01-30T03:13:53.646Z,99.90
2023-01-30T03:16:39.458Z,99.90
2023-01-30T03:19:19.495Z,1.00
2023-01-30T03:21:53.498Z,1.00
2023-01-30T03:24:27.502Z,1.00
2023-01-30T03:27:20.484Z,1.00
2023-01-30T03:29:47.710Z,99.90
2023-01-30T03:32:14.678Z,99.90
2023-01-30T03:34:48.490Z,99.90
2023-01-30T03:37:15.544Z,99.90
2023-01-30T03:39:49.502Z,99.90
2023-01-30T03:42:16.527Z,99.90
2023-01-30T03:44:49.489Z,99.90
2023-01-30T03:47:16.376Z,99.90
2023-01-30T03:49:49.497Z,99.90
2023-01-30T03:52:16.512Z,99.90
2023-01-30T03:54:49.529Z,99.90
2023-01-30T03:57:23.496Z,99.90
2023-01-30T03:59:56.509Z,99.90
2023-01-30T04:02:29.707Z,99.90
2023-01-30T04:05:11.515Z,99.90
2023-01-30T04:07:44.533Z,99.90
